Terminal Aerodrome Forecast
Issued by NWS

Home | Current Version | Previous Version | Text Only | Print | Product List | Glossary On
Versions: 1 2 3 4 5 6 7 8 9 10 11 12 13 14 15 16 17 18 19 20 21 22 23 24 25 26 27
000
FTUS46 KSGX 302046 AAA
TAFSAN
TAF AMD
KSAN 302046Z 3021/0124 30012KT P6SM SCT010 BKN080
      TEMPO 3021/3024 VRB05G20KT 5SM -TSRA BKN080CB
     FM010200 VRB03KT P6SM SCT010 BKN060
     FM010700 VRB04KT P6SM BKN010
     FM011700 VRB05KT P6SM SCT010
     FM012000 28009KT P6SM SCT150=

USA.gov is the U.S. government's official web portal to all federal, state and local government web resources and services.